Time;durP1;ratioP1;P1;durP2;ratioP2;P2;SDS_P1;SDS_P2;PMS_P1;PMS_P2;Temp;Humidity;BMP_temperature;BMP_pressure;BME280_temperature;BME280_humidity;BME280_pressure;Samples;Min_cycle;Max_cycle;Signal;HPM_P1;HPM_P2
2024/03/10 00:02:02;;;;;;;31.10;18.20;;;;;;;2.76;100.00;99533.53;5047234;28;20225;-82
2024/03/10 00:04:30;;;;;;;39.67;18.67;;;;;;;2.75;100.00;99523.09;5057027;28;20217;-82
2024/03/10 00:06:59;;;;;;;36.73;20.10;;;;;;;2.75;100.00;99533.59;5056057;28;20229;-82
2024/03/10 00:09:26;;;;;;;30.70;18.43;;;;;;;2.71;100.00;99527.63;5050035;28;20647;-82
2024/03/10 00:11:52;;;;;;;34.13;18.60;;;;;;;2.73;100.00;99527.56;5055458;28;20292;-82
2024/03/10 00:14:20;;;;;;;32.67;18.50;;;;;;;2.70;100.00;99531.19;5056042;28;20825;-83
2024/03/10 00:16:47;;;;;;;32.67;18.23;;;;;;;2.68;100.00;99533.06;5054220;28;20630;-82
2024/03/10 00:19:13;;;;;;;37.13;20.07;;;;;;;2.67;100.00;99526.09;5063372;28;20197;-83
2024/03/10 00:21:41;;;;;;;37.87;19.80;;;;;;;2.67;100.00;99527.88;5057335;28;20201;-83
2024/03/10 00:24:08;;;;;;;34.07;19.37;;;;;;;2.63;100.00;99516.66;5056935;28;20244;-83
2024/03/10 00:26:35;;;;;;;34.73;19.37;;;;;;;2.59;100.00;99520.34;5049962;28;20308;-81
2024/03/10 00:29:02;;;;;;;36.60;19.53;;;;;;;2.60;100.00;99526.47;5055890;28;20224;-81
2024/03/10 00:31:30;;;;;;;36.87;20.00;;;;;;;2.59;100.00;99516.88;5056035;28;20209;-81
2024/03/10 00:33:57;;;;;;;40.67;19.70;;;;;;;2.58;100.00;99521.28;5053302;28;20202;-81
2024/03/10 00:36:27;;;;;;;35.27;20.70;;;;;;;2.57;100.00;99521.34;5050307;28;20225;-82
2024/03/10 00:38:55;;;;;;;37.60;20.33;;;;;;;2.55;100.00;99516.16;5055783;28;20665;-83
2024/03/10 00:41:21;;;;;;;37.30;20.40;;;;;;;2.54;100.00;99513.63;5051347;28;20232;-82
2024/03/10 00:43:48;;;;;;;37.67;20.47;;;;;;;2.51;100.00;99514.59;5052545;28;20261;-82
2024/03/10 00:46:15;;;;;;;35.20;19.73;;;;;;;2.50;100.00;99520.81;5053383;28;20229;-82
2024/03/10 00:48:42;;;;;;;37.93;20.27;;;;;;;2.51;100.00;99526.94;5053197;28;20343;-83
2024/03/10 00:51:09;;;;;;;37.60;20.93;;;;;;;2.49;100.00;99521.75;5059538;28;20292;-84
2024/03/10 00:53:35;;;;;;;39.73;20.97;;;;;;;2.49;100.00;99528.78;5054783;28;20241;-82
2024/03/10 00:56:04;;;;;;;36.43;19.93;;;;;;;2.47;100.00;99520.09;5053398;28;20209;-82
2024/03/10 00:58:32;;;;;;;37.20;20.50;;;;;;;2.43;100.00;99522.88;5053860;28;20269;-82
2024/03/10 01:00:59;;;;;;;39.93;20.37;;;;;;;2.42;100.00;99518.56;5054447;28;20289;-82
2024/03/10 01:03:26;;;;;;;41.37;21.83;;;;;;;2.41;100.00;99513.38;5052699;28;20300;-82
2024/03/10 01:05:52;;;;;;;37.97;20.23;;;;;;;2.41;100.00;99514.22;5051983;28;20716;-82
2024/03/10 01:08:19;;;;;;;42.67;22.23;;;;;;;2.40;100.00;99516.91;5059529;28;20284;-82
2024/03/10 01:10:46;;;;;;;36.40;20.67;;;;;;;2.38;100.00;99516.97;5054631;28;20205;-82
2024/03/10 01:13:15;;;;;;;38.17;21.07;;;;;;;2.36;100.00;99512.72;5056205;28;20290;-82
2024/03/10 01:15:42;;;;;;;38.67;20.97;;;;;;;2.33;100.00;99515.53;5047916;28;20229;-83
2024/03/10 01:18:09;;;;;;;44.40;21.67;;;;;;;2.35;100.00;99517.13;5053476;28;20259;-82
2024/03/10 01:20:36;;;;;;;38.70;20.57;;;;;;;2.33;100.00;99518.97;5053498;28;20237;-83
2024/03/10 01:23:04;;;;;;;39.67;20.50;;;;;;;2.30;100.00;99520.91;5052571;28;20201;-82
2024/03/10 01:25:31;;;;;;;42.03;21.73;;;;;;;2.29;100.00;99520.06;5054324;28;20232;-83
2024/03/10 01:27:57;;;;;;;38.60;19.97;;;;;;;2.27;100.00;99506.16;5052962;28;20264;-82
2024/03/10 01:30:25;;;;;;;40.87;21.33;;;;;;;2.26;100.00;99498.34;5053480;28;20300;-82
2024/03/10 01:32:52;;;;;;;40.27;21.53;;;;;;;2.24;100.00;99500.19;5052838;28;20588;-82
2024/03/10 01:35:19;;;;;;;42.33;21.77;;;;;;;2.22;100.00;99502.88;5053735;28;20646;-82
2024/03/10 01:37:45;;;;;;;38.70;21.47;;;;;;;2.21;100.00;99501.19;5053575;28;20260;-82
2024/03/10 01:40:12;;;;;;;42.33;22.23;;;;;;;2.20;100.00;99488.13;5053662;28;20734;-82
2024/03/10 01:42:39;;;;;;;41.40;22.13;;;;;;;2.19;100.00;99487.25;5052331;28;20869;-83
2024/03/10 01:45:07;;;;;;;45.80;21.00;;;;;;;2.17;100.00;99486.47;5054186;28;20312;-82
2024/03/10 01:47:35;;;;;;;43.90;21.97;;;;;;;2.15;100.00;99474.38;5053002;28;20226;-82
2024/03/10 01:50:05;;;;;;;44.43;22.97;;;;;;;2.15;100.00;99477.81;5052880;28;20665;-82
2024/03/10 01:52:34;;;;;;;42.27;22.03;;;;;;;2.13;100.00;99478.84;5050187;28;20231;-83
2024/03/10 01:55:01;;;;;;;44.07;22.20;;;;;;;2.13;100.00;99479.69;5055011;28;20294;-82
2024/03/10 01:57:29;;;;;;;43.80;21.97;;;;;;;2.12;100.00;99485.03;5056669;28;20682;-81
2024/03/10 01:59:57;;;;;;;45.17;22.93;;;;;;;2.09;100.00;99489.50;5059977;28;20237;-82
2024/03/10 02:02:24;;;;;;;46.57;22.10;;;;;;;2.07;100.00;99493.97;5058058;28;20241;-81
2024/03/10 02:04:52;;;;;;;41.33;21.80;;;;;;;2.04;100.00;99494.09;5054053;28;20267;-81
2024/03/10 02:07:18;;;;;;;48.20;23.73;;;;;;;2.02;100.00;99492.47;5057459;28;20256;-82
2024/03/10 02:09:47;;;;;;;43.57;22.43;;;;;;;2.01;100.00;99493.38;5059923;28;20210;-82
2024/03/10 02:12:13;;;;;;;45.03;22.10;;;;;;;2.00;100.00;99495.16;5058821;28;20252;-82
2024/03/10 02:14:40;;;;;;;40.30;23.33;;;;;;;1.99;100.00;99489.97;5051187;28;20240;-83
2024/03/10 02:17:10;;;;;;;47.80;23.27;;;;;;;1.98;100.00;99502.25;5053373;28;20305;-82
2024/03/10 02:19:37;;;;;;;45.57;22.73;;;;;;;1.95;100.00;99489.28;5053141;28;20213;-81
2024/03/10 02:22:07;;;;;;;45.57;23.17;;;;;;;1.93;100.00;99483.25;5044107;28;20225;-82
2024/03/10 02:24:38;;;;;;;50.23;24.17;;;;;;;1.92;100.00;99480.69;5050298;28;20221;-81
2024/03/10 02:27:15;;;;;;;50.77;25.00;;;;;;;1.93;100.00;99480.63;5050980;28;20217;-81
2024/03/10 02:29:59;;;;;;;50.20;24.73;;;;;;;1.92;100.00;99476.31;5062300;28;20200;-81
2024/03/10 02:48:52;;;;;;;51.43;24.40;;;;;;;1.80;100.00;99487.34;5050217;28;20232;-82
2024/03/10 02:51:18;;;;;;;52.17;24.73;;;;;;;1.79;100.00;99501.44;5057031;28;20293;-82
2024/03/10 02:53:46;;;;;;;55.47;26.43;;;;;;;1.77;100.00;99495.41;5058943;28;20309;-82
2024/03/10 02:56:13;;;;;;;49.63;25.63;;;;;;;1.77;100.00;99499.78;5053503;28;20220;-82
2024/03/10 02:58:41;;;;;;;48.07;24.67;;;;;;;1.77;100.00;99497.16;5056386;28;20671;-82
2024/03/10 03:01:09;;;;;;;49.33;24.90;;;;;;;1.76;100.00;99483.19;5053675;28;20237;-82
2024/03/10 03:03:35;;;;;;;49.90;24.60;;;;;;;1.73;100.00;99483.31;5046456;28;20267;-81
2024/03/10 03:06:02;;;;;;;52.03;24.33;;;;;;;1.71;100.00;99487.78;5055832;28;20312;-82
2024/03/10 03:08:28;;;;;;;52.20;25.50;;;;;;;1.67;100.00;99476.56;5060235;28;20209;-82
2024/03/10 03:10:55;;;;;;;53.47;25.00;;;;;;;1.65;100.00;99475.78;5067656;28;20323;-82
2024/03/10 03:13:22;;;;;;;55.33;27.40;;;;;;;1.62;100.00;99481.16;5057508;28;20577;-82
2024/03/10 03:15:51;;;;;;;50.03;25.37;;;;;;;1.61;100.00;99489.97;5057043;28;20228;-83
2024/03/10 03:18:17;;;;;;;58.40;25.07;;;;;;;1.60;100.00;99492.69;5050565;28;20216;-81
2024/03/10 03:20:44;;;;;;;52.73;24.47;;;;;;;1.59;100.00;99485.72;5055800;28;20923;-82
2024/03/10 03:23:11;;;;;;;51.00;24.37;;;;;;;1.59;100.00;99483.09;5051914;28;20753;-81
2024/03/10 03:25:37;;;;;;;52.60;26.87;;;;;;;1.57;100.00;99480.56;5055493;28;20316;-81
2024/03/10 03:28:06;;;;;;;53.80;27.40;;;;;;;1.54;100.00;99480.69;5055039;28;20226;-82
2024/03/10 03:30:33;;;;;;;61.37;27.47;;;;;;;1.56;100.00;99478.00;5052608;28;20209;-82
2024/03/10 03:33:01;;;;;;;62.77;28.07;;;;;;;1.54;100.00;99482.44;5055674;28;20297;-82
2024/03/10 03:35:28;;;;;;;55.03;26.90;;;;;;;1.49;100.00;99484.41;5051005;28;20700;-82
2024/03/10 03:37:55;;;;;;;61.73;28.60;;;;;;;1.47;100.00;99481.00;5061401;28;20225;-82
2024/03/10 03:40:23;;;;;;;55.87;27.77;;;;;;;1.41;100.00;99482.16;5053099;28;20649;-82
2024/03/10 03:42:49;;;;;;;62.37;27.70;;;;;;;1.38;100.00;99472.66;5048517;28;20214;-82
2024/03/10 03:45:17;;;;;;;61.67;27.87;;;;;;;1.33;100.00;99479.88;5053191;28;20317;-82
2024/03/10 03:47:44;;;;;;;60.33;28.90;;;;;;;1.33;100.00;99469.38;5050038;28;20227;-82
2024/03/10 03:50:12;;;;;;;63.53;30.20;;;;;;;1.34;100.00;99470.22;5053075;28;20216;-81
2024/03/10 03:52:39;;;;;;;57.87;27.37;;;;;;;1.33;100.00;99461.50;5049894;28;20249;-81
2024/03/10 03:55:06;;;;;;;64.67;28.80;;;;;;;1.30;100.00;99461.63;5055421;28;20855;-81
2024/03/10 03:57:33;;;;;;;65.30;29.63;;;;;;;1.30;100.00;99468.66;5054587;28;20253;-82
2024/03/10 03:59:59;;;;;;;62.30;28.37;;;;;;;1.28;100.00;99466.09;5062181;28;20204;-81
2024/03/10 04:02:26;;;;;;;62.77;27.33;;;;;;;1.29;100.00;99457.31;5056651;28;20256;-81
2024/03/10 04:04:53;;;;;;;62.93;29.60;;;;;;;1.28;100.00;99447.72;5054434;28;20256;-82
2024/03/10 04:07:21;;;;;;;62.00;28.17;;;;;;;1.30;100.00;99459.00;5051316;28;20231;-82
2024/03/10 04:09:48;;;;;;;62.67;28.30;;;;;;;1.29;100.00;99454.69;5053264;28;20240;-82
2024/03/10 04:12:14;;;;;;;63.07;29.53;;;;;;;1.28;100.00;99449.50;5046222;28;20233;-82
2024/03/10 04:14:41;;;;;;;62.27;28.47;;;;;;;1.26;100.00;99443.47;5049752;28;20639;-81
2024/03/10 04:17:08;;;;;;;62.53;28.60;;;;;;;1.26;100.00;99441.69;5038548;28;20312;-82
2024/03/10 04:19:35;;;;;;;65.67;29.20;;;;;;;1.26;100.00;99427.72;5046948;28;20233;-81
2024/03/10 04:22:02;;;;;;;64.87;28.97;;;;;;;1.27;100.00;99432.06;5051852;28;20657;-82
2024/03/10 04:24:30;;;;;;;67.43;30.40;;;;;;;1.26;100.00;99425.97;5059747;28;20288;-82
2024/03/10 04:26:56;;;;;;;68.20;31.77;;;;;;;1.28;100.00;99424.13;5053115;28;20225;-81
2024/03/10 04:29:23;;;;;;;65.07;30.17;;;;;;;1.29;100.00;99430.22;5053148;28;20237;-81
2024/03/10 04:31:50;;;;;;;60.57;29.07;;;;;;;1.29;100.00;99431.06;5046772;28;20231;-81
2024/03/10 04:34:16;;;;;;;59.00;28.70;;;;;;;1.26;100.00;99425.97;5049668;28;20236;-82
2024/03/10 04:36:43;;;;;;;67.50;30.57;;;;;;;1.26;100.00;99425.97;5045489;28;20711;-82
2024/03/10 04:39:10;;;;;;;70.30;31.00;;;;;;;1.23;100.00;99422.66;5045158;28;20240;-82
2024/03/10 04:41:38;;;;;;;69.73;30.80;;;;;;;1.22;100.00;99421.81;5051410;28;20215;-81
2024/03/10 04:44:05;;;;;;;67.60;31.70;;;;;;;1.22;100.00;99419.19;5057285;28;20202;-82
2024/03/10 04:46:32;;;;;;;76.17;30.90;;;;;;;1.23;100.00;99420.03;5052106;28;20233;-82
2024/03/10 04:48:59;;;;;;;73.33;31.90;;;;;;;1.23;100.00;99414.78;5051806;28;20225;-82
2024/03/10 04:51:25;;;;;;;73.43;32.57;;;;;;;1.23;100.00;99405.16;5054722;28;20206;-82
2024/03/10 04:53:52;;;;;;;77.80;33.00;;;;;;;1.25;100.00;99407.69;5060518;28;20256;-81
2024/03/10 04:56:19;;;;;;;72.27;31.83;;;;;;;1.22;100.00;99403.44;5052609;28;20304;-81
2024/03/10 04:58:47;;;;;;;68.13;30.73;;;;;;;1.21;100.00;99404.34;5055850;28;20244;-81
2024/03/10 05:01:16;;;;;;;73.63;31.97;;;;;;;1.18;100.00;99399.25;5053874;28;20209;-82
2024/03/10 05:03:43;;;;;;;76.77;33.30;;;;;;;1.18;100.00;99398.41;5048451;28;20230;-81
2024/03/10 05:06:10;;;;;;;82.17;34.87;;;;;;;1.17;100.00;99397.53;5048728;28;20268;-81
2024/03/10 05:08:37;;;;;;;74.00;33.03;;;;;;;1.19;100.00;99398.34;5054064;28;20273;-82
2024/03/10 05:11:04;;;;;;;84.30;35.30;;;;;;;1.20;100.00;99399.19;5048884;28;20267;-82
2024/03/10 05:13:31;;;;;;;82.53;34.60;;;;;;;1.19;100.00;99400.94;5052155;28;20202;-82
2024/03/10 05:15:59;;;;;;;78.17;35.03;;;;;;;1.19;100.00;99397.47;5053218;28;20232;-82
2024/03/10 05:18:26;;;;;;;83.53;35.00;;;;;;;1.14;100.00;99400.31;5046602;28;20569;-82
2024/03/10 05:20:52;;;;;;;83.47;34.97;;;;;;;1.14;100.00;99400.31;5054356;28;20205;-81
2024/03/10 05:23:19;;;;;;;81.10;34.63;;;;;;;1.13;100.00;99403.84;5054094;28;20234;-82
2024/03/10 05:25:45;;;;;;;82.63;35.67;;;;;;;1.12;100.00;99393.41;5050852;28;20306;-81
2024/03/10 05:28:12;;;;;;;80.70;34.57;;;;;;;1.14;100.00;99400.31;5046969;28;20248;-81
2024/03/10 05:30:40;;;;;;;82.27;35.47;;;;;;;1.15;100.00;99390.66;5059133;28;20202;-81
2024/03/10 05:33:09;;;;;;;84.17;36.70;;;;;;;1.16;100.00;99397.63;5055872;28;20274;-82
2024/03/10 05:35:35;;;;;;;81.13;35.03;;;;;;;1.18;100.00;99396.63;5056048;28;20293;-81
2024/03/10 05:38:02;;;;;;;81.27;35.23;;;;;;;1.19;100.00;99387.00;5059410;28;20249;-82
2024/03/10 05:40:29;;;;;;;82.80;35.30;;;;;;;1.17;100.00;99387.06;5047361;28;20210;-82
2024/03/10 05:42:55;;;;;;;84.87;35.17;;;;;;;1.21;100.00;99395.66;5052007;28;20289;-82
2024/03/10 05:45:22;;;;;;;86.37;36.63;;;;;;;1.24;100.00;99398.13;5051553;28;20324;-82
2024/03/10 05:47:49;;;;;;;83.03;35.80;;;;;;;1.26;100.00;99396.25;5055949;28;20224;-82
2024/03/10 05:50:17;;;;;;;82.80;36.00;;;;;;;1.28;100.00;99402.28;5055479;28;20209;-82
2024/03/10 05:52:44;;;;;;;80.00;34.47;;;;;;;1.24;100.00;99388.50;5049237;28;20205;-81
2024/03/10 05:55:11;;;;;;;85.23;35.20;;;;;;;1.24;100.00;99382.41;5053614;28;20198;-81
2024/03/10 05:57:39;;;;;;;79.60;33.67;;;;;;;1.25;100.00;99398.06;5055845;28;20311;-83
2024/03/10 06:00:13;;;;;;;87.30;36.13;;;;;;;1.25;100.00;99390.19;5051376;28;20237;-81
2024/03/10 06:02:40;;;;;;;85.57;35.60;;;;;;;1.27;100.00;99387.47;5056271;28;20308;-82
2024/03/10 06:05:08;;;;;;;82.60;36.20;;;;;;;1.27;100.00;99376.97;5056269;28;20264;-81
2024/03/10 06:07:36;;;;;;;88.60;38.30;;;;;;;1.27;100.00;99383.09;5054024;28;20257;-82
2024/03/10 06:10:05;;;;;;;89.10;37.47;;;;;;;1.28;100.00;99382.16;5049844;28;20281;-82
2024/03/10 06:12:32;;;;;;;81.80;36.37;;;;;;;1.30;100.00;99384.72;5049930;28;20268;-81
2024/03/10 06:14:58;;;;;;;79.13;35.30;;;;;;;1.30;100.00;99393.44;5048735;28;20229;-82
2024/03/10 06:17:31;;;;;;;85.80;36.87;;;;;;;1.33;100.00;99392.44;5053935;28;20229;-81
2024/03/10 06:25:28;;;;;;;86.50;37.53;;;;;;;1.41;100.00;99402.59;5052274;28;20870;-83
2024/03/10 06:27:56;;;;;;;86.03;37.00;;;;;;;1.41;100.00;99400.84;5052876;28;20738;-83
2024/03/10 06:30:23;;;;;;;87.13;37.50;;;;;;;1.40;100.00;99388.63;5046679;28;20209;-82
2024/03/10 06:32:49;;;;;;;94.40;38.13;;;;;;;1.42;100.00;99384.19;5051512;28;20241;-81
2024/03/10 06:35:16;;;;;;;81.17;36.17;;;;;;;1.50;100.00;99381.19;5047685;28;20232;-81
2024/03/10 06:37:45;;;;;;;83.30;36.03;;;;;;;1.52;100.00;99380.19;5060000;28;20268;-80
2024/03/10 06:40:12;;;;;;;91.70;38.63;;;;;;;1.54;100.00;99373.09;5052586;28;20209;-81
2024/03/10 06:42:39;;;;;;;91.43;37.87;;;;;;;1.59;100.00;99378.16;5056308;28;20288;-82
2024/03/10 06:45:08;;;;;;;86.13;35.53;;;;;;;1.63;100.00;99371.81;5056582;28;20232;-82
2024/03/10 06:47:35;;;;;;;90.20;38.93;;;;;;;1.61;100.00;99376.31;5052037;28;20287;-82
2024/03/10 06:50:04;;;;;;;89.17;38.43;;;;;;;1.62;100.00;99378.81;5059886;28;20624;-82
2024/03/10 06:52:31;;;;;;;93.93;38.90;;;;;;;1.61;100.00;99376.31;5054719;28;20211;-82
2024/03/10 06:55:00;;;;;;;86.53;36.97;;;;;;;1.64;100.00;99373.50;5055747;28;20205;-82
2024/03/10 06:57:27;;;;;;;79.80;34.57;;;;;;;1.69;100.00;99369.75;5050334;28;20304;-82
2024/03/10 06:59:54;;;;;;;87.97;37.33;;;;;;;1.71;100.00;99370.53;5050311;28;20568;-82
2024/03/10 07:02:22;;;;;;;87.03;37.03;;;;;;;1.69;100.00;99366.28;5049474;28;20210;-83
2024/03/10 07:04:49;;;;;;;90.80;37.97;;;;;;;1.71;100.00;99365.28;5052416;28;20692;-83
2024/03/10 07:07:16;;;;;;;83.07;37.13;;;;;;;1.74;100.00;99354.63;5057857;28;20233;-82
2024/03/10 07:09:43;;;;;;;77.47;34.57;;;;;;;1.78;100.00;99357.97;5069378;28;20240;-82
2024/03/10 07:12:11;;;;;;;81.87;37.10;;;;;;;1.81;100.00;99363.06;5064965;28;20550;-83
2024/03/10 07:14:38;;;;;;;89.53;39.47;;;;;;;1.79;100.00;99364.94;5056655;28;20271;-82
2024/03/10 07:17:05;;;;;;;90.17;37.07;;;;;;;1.80;100.00;99369.22;5056508;28;20283;-82
2024/03/10 07:19:32;;;;;;;88.83;38.07;;;;;;;1.81;100.00;99368.31;5055375;28;20240;-82
2024/03/10 07:21:59;;;;;;;85.67;37.13;;;;;;;1.87;100.00;99364.53;5056160;28;20276;-81
2024/03/10 07:24:25;;;;;;;86.27;36.03;;;;;;;1.86;100.00;99376.81;5056197;28;20855;-83
2024/03/10 07:26:52;;;;;;;93.10;39.77;;;;;;;1.86;100.00;99374.19;5063835;28;20240;-81
2024/03/10 07:29:20;;;;;;;84.70;37.80;;;;;;;1.89;100.00;99378.44;5071816;28;20207;-82
2024/03/10 07:31:48;;;;;;;77.37;35.77;;;;;;;1.91;100.00;99380.06;5057766;28;20210;-81
2024/03/10 07:34:14;;;;;;;82.83;37.00;;;;;;;1.95;100.00;99386.03;5056958;28;20245;-81
2024/03/10 07:36:41;;;;;;;88.97;36.47;;;;;;;1.99;100.00;99390.19;5055688;28;20304;-82
2024/03/10 07:39:10;;;;;;;84.57;37.20;;;;;;;2.01;100.00;99383.94;5067125;28;20266;-82
2024/03/10 07:41:37;;;;;;;83.03;38.13;;;;;;;2.05;100.00;99382.03;5064997;28;20542;-83
2024/03/10 07:44:03;;;;;;;84.27;36.83;;;;;;;2.04;100.00;99386.44;5054656;28;20234;-82
2024/03/10 07:46:31;;;;;;;89.77;38.63;;;;;;;2.05;100.00;99396.00;5054496;28;20284;-83
2024/03/10 07:49:00;;;;;;;92.40;38.60;;;;;;;2.10;100.00;99393.16;5059409;28;20225;-83
2024/03/10 07:51:30;;;;;;;95.07;37.57;;;;;;;2.20;100.00;99393.56;5058706;28;20233;-83
2024/03/10 07:53:57;;;;;;;92.93;39.73;;;;;;;2.24;100.00;99403.00;5061873;28;20205;-82
2024/03/10 07:56:24;;;;;;;89.40;38.40;;;;;;;2.28;100.00;99405.41;5062782;28;20259;-81
2024/03/10 07:58:51;;;;;;;83.07;35.87;;;;;;;2.32;100.00;99396.44;5066245;28;20575;-82
2024/03/10 08:01:17;;;;;;;82.77;38.07;;;;;;;2.40;100.00;99390.78;5074481;28;20346;-82
2024/03/10 08:03:45;;;;;;;86.87;37.70;;;;;;;2.48;100.00;99393.91;5046858;28;20252;-82
2024/03/10 08:06:12;;;;;;;89.20;38.40;;;;;;;2.48;100.00;99401.78;5061357;28;20769;-82
2024/03/10 08:08:39;;;;;;;88.67;38.70;;;;;;;2.50;100.00;99407.81;5062260;28;20209;-82
2024/03/10 08:11:05;;;;;;;81.57;38.20;;;;;;;2.57;100.00;99406.56;5063772;28;20241;-84
2024/03/10 08:13:32;;;;;;;88.13;36.83;;;;;;;2.59;100.00;99409.97;5055497;28;20245;-82
2024/03/10 08:16:00;;;;;;;84.33;39.27;;;;;;;2.63;100.00;99408.88;5065388;28;20238;-82
2024/03/10 08:18:26;;;;;;;93.80;41.07;;;;;;;2.71;100.00;99419.00;5062086;28;20211;-84
2024/03/10 08:20:54;;;;;;;91.50;41.10;;;;;;;2.76;100.00;99425.72;5060707;28;20297;-83
2024/03/10 08:23:21;;;;;;;91.63;41.87;;;;;;;2.85;100.00;99421.81;5055989;28;20292;-83
2024/03/10 08:25:48;;;;;;;93.83;42.47;;;;;;;2.94;100.00;99423.09;5063260;28;20288;-83
2024/03/10 08:28:15;;;;;;;94.47;42.90;;;;;;;3.03;100.00;99425.25;5054111;28;20221;-82
2024/03/10 08:30:42;;;;;;;90.83;41.80;;;;;;;3.09;100.00;99417.88;5061558;28;20210;-82
2024/03/10 08:33:09;;;;;;;89.40;42.53;;;;;;;3.16;100.00;99428.94;5055847;28;20206;-83
2024/03/10 08:35:35;;;;;;;91.13;42.03;;;;;;;3.21;100.00;99426.94;5062973;28;20340;-81
2024/03/10 08:38:06;;;;;;;88.20;40.63;;;;;;;3.26;100.00;99422.25;5049807;28;20224;-84
2024/03/10 08:40:34;;;;;;;87.13;40.90;;;;;;;3.29;100.00;99422.09;5066357;28;20225;-83
2024/03/10 08:43:01;;;;;;;84.47;39.13;;;;;;;3.34;100.00;99424.47;5054551;28;20198;-82
2024/03/10 08:45:28;;;;;;;87.30;40.30;;;;;;;3.42;100.00;99428.38;5055425;28;20293;-83
2024/03/10 08:47:55;;;;;;;82.07;38.33;;;;;;;3.46;100.00;99434.34;5062002;28;20261;-83
2024/03/10 08:50:22;;;;;;;91.60;41.13;;;;;;;3.51;100.00;99431.47;5054705;28;20213;-83
2024/03/10 08:52:48;;;;;;;86.97;40.33;;;;;;;3.56;100.00;99418.94;5054038;28;20208;-83
2024/03/10 08:55:18;;;;;;;80.40;39.53;;;;;;;3.58;100.00;99407.38;5054801;28;20670;-83
2024/03/10 08:57:45;;;;;;;81.57;38.43;;;;;;;3.64;100.00;99400.91;5056024;28;20267;-82
2024/03/10 09:00:14;;;;;;;80.57;39.67;;;;;;;3.68;100.00;99399.81;5061231;28;20292;-84
2024/03/10 09:02:41;;;;;;;79.77;38.07;;;;;;;3.76;100.00;99402.91;5054179;28;20223;-82
2024/03/10 09:05:12;;;;;;;79.47;37.50;;;;;;;3.79;100.00;99406.19;5058733;28;20554;-83
2024/03/10 09:07:38;;;;;;;87.20;40.97;;;;;;;3.81;100.00;99409.59;5054081;28;20697;-84
2024/03/10 09:10:06;;;;;;;78.83;39.17;;;;;;;3.89;100.00;99413.59;5063624;28;20228;-83
2024/03/10 09:12:34;;;;;;;81.40;40.47;;;;;;;3.91;100.00;99411.72;5059565;28;20240;-83
2024/03/10 09:15:01;;;;;;;87.90;42.40;;;;;;;3.98;100.00;99429.72;5050382;28;20261;-84
2024/03/10 09:17:29;;;;;;;81.30;39.27;;;;;;;4.05;100.00;99420.53;5049890;28;20271;-84
2024/03/10 09:19:56;;;;;;;88.10;42.00;;;;;;;4.11;100.00;99417.56;5053746;28;20704;-85
2024/03/10 09:22:22;;;;;;;92.20;42.67;;;;;;;4.12;100.00;99411.34;5052678;28;20304;-84
2024/03/10 09:24:49;;;;;;;81.80;40.43;;;;;;;4.17;100.00;99408.44;5051519;28;20257;-84
2024/03/10 09:27:16;;;;;;;82.70;39.83;;;;;;;4.21;100.00;99417.88;5052505;28;20231;-84
2024/03/10 09:29:46;;;;;;;78.90;40.43;;;;;;;4.30;100.00;99408.63;5053890;28;20206;-83
2024/03/10 09:32:15;;;;;;;79.20;39.73;;;;;;;4.30;100.00;99408.63;5053316;28;20199;-84
2024/03/10 09:34:42;;;;;;;80.63;39.23;;;;;;;4.29;100.00;99402.50;5053804;28;20563;-83
2024/03/10 09:37:09;;;;;;;78.33;39.03;;;;;;;4.32;100.00;99397.03;5053337;28;20225;-83
2024/03/10 09:39:36;;;;;;;78.63;39.00;;;;;;;4.35;100.00;99382.81;5054781;28;20304;-83
2024/03/10 09:42:03;;;;;;;75.03;36.33;;;;;;;4.42;100.00;99371.84;5064980;28;20244;-83
2024/03/10 09:44:32;;;;;;;76.27;36.63;;;;;;;4.47;100.00;99374.22;5054009;28;20282;-82
2024/03/10 09:47:00;;;;;;;76.67;37.40;;;;;;;4.48;100.00;99358.28;5059574;28;20240;-82
2024/03/10 09:49:27;;;;;;;69.03;35.67;;;;;;;4.54;100.00;99352.66;5047681;28;20293;-82
2024/03/10 09:51:56;;;;;;;66.43;35.17;;;;;;;4.60;100.00;99343.56;5053712;28;20736;-83
2024/03/10 09:54:23;;;;;;;66.03;34.00;;;;;;;4.61;100.00;99344.41;5054594;28;20668;-83
2024/03/10 09:56:50;;;;;;;66.33;34.73;;;;;;;4.66;100.00;99348.44;5054238;28;20217;-83
2024/03/10 09:59:24;;;;;;;63.47;32.07;;;;;;;4.75;100.00;99352.31;5058554;28;20207;-82
2024/03/10 10:01:53;;;;;;;60.43;33.07;;;;;;;4.81;100.00;99337.00;5064809;28;20308;-83
2024/03/10 10:04:25;;;;;;;69.93;35.97;;;;;;;4.87;100.00;99335.75;5052152;28;20646;-84
2024/03/10 10:06:54;;;;;;;59.20;32.00;;;;;;;4.98;100.00;99343.03;5050629;28;20233;-83
2024/03/10 10:09:26;;;;;;;58.57;31.83;;;;;;;5.03;100.00;99338.28;5048511;28;20722;-83
2024/03/10 10:11:56;;;;;;;58.77;31.60;;;;;;;5.09;100.00;99330.84;5044491;28;20206;-84
2024/03/10 10:14:23;;;;;;;60.17;33.00;;;;;;;5.14;100.00;99331.44;5054614;28;20229;-84
2024/03/10 10:16:55;;;;;;;54.63;31.50;;;;;;;5.26;100.00;99323.69;5055389;28;20556;-82
2024/03/10 10:19:25;;;;;;;60.23;30.40;;;;;;;5.35;100.00;99320.47;5055126;28;20205;-83
2024/03/10 10:21:52;;;;;;;57.77;31.53;;;;;;;5.38;100.00;99313.19;5055165;28;20209;-83
2024/03/10 10:24:20;;;;;;;53.73;29.47;;;;;;;5.43;100.00;99304.97;5057592;28;20695;-83
2024/03/10 10:26:58;;;;;;;56.07;30.23;;;;;;;5.49;100.00;99318.66;5060844;28;20269;-83
2024/03/10 10:29:27;;;;;;;56.43;29.67;;;;;;;5.56;100.00;99312.00;5053479;28;20212;-83
2024/03/10 10:31:57;;;;;;;51.93;28.67;;;;;;;5.69;100.00;99322.66;5051635;28;20205;-83
2024/03/10 10:34:26;;;;;;;49.87;30.33;;;;;;;5.78;100.00;99318.56;5054191;28;20255;-83
2024/03/10 10:36:54;;;;;;;53.30;30.13;;;;;;;5.89;100.00;99326.69;5046861;28;20277;-84
2024/03/10 10:39:26;;;;;;;48.07;26.87;;;;;;;6.02;100.00;99326.72;5053621;28;20284;-83
2024/03/10 10:41:55;;;;;;;42.10;24.43;;;;;;;6.05;100.00;99337.97;5053914;28;20678;-83
2024/03/10 10:44:22;;;;;;;52.17;29.90;;;;;;;6.13;100.00;99355.94;5057178;28;20554;-84
2024/03/10 10:46:50;;;;;;;50.83;27.07;;;;;;;6.21;100.00;99353.66;5056738;28;20693;-82
2024/03/10 10:49:19;;;;;;;46.67;27.90;;;;;;;6.26;100.00;99344.47;5052262;28;20233;-82
2024/03/10 10:51:50;;;;;;;46.13;26.60;;;;;;;6.36;100.00;99341.19;5051121;28;20237;-82
2024/03/10 10:54:17;;;;;;;48.50;28.03;;;;;;;6.44;100.00;99349.50;5051960;28;20271;-83
2024/03/10 10:56:44;;;;;;;48.33;28.17;;;;;;;6.53;100.00;99356.78;5060285;28;20225;-84
2024/03/10 10:59:13;;;;;;;42.33;25.73;;;;;;;6.64;100.00;99364.84;5058022;28;20209;-84
2024/03/10 11:01:41;;;;;;;42.83;25.33;;;;;;;6.66;100.00;99362.94;5056262;28;20686;-83
2024/03/10 11:04:12;;;;;;;46.03;27.67;;;;;;;6.68;100.00;99353.09;5056170;28;20773;-84
2024/03/10 11:06:38;;;;;;;37.93;24.10;;;;;;;6.71;100.00;99336.19;5057623;28;20671;-83
2024/03/10 11:09:14;;;;;;;37.73;23.13;;;;;;;6.66;100.00;99325.91;5057101;28;20213;-83
2024/03/10 11:11:47;;;;;;;42.07;25.87;;;;;;;6.66;100.00;99322.41;5056446;28;20196;-83
2024/03/10 11:14:15;;;;;;;44.40;26.07;;;;;;;6.70;100.00;99311.50;5053727;28;20850;-84
2024/03/10 11:16:42;;;;;;;41.97;24.50;;;;;;;6.79;100.00;99294.16;5050773;28;20249;-84
2024/03/10 11:19:21;;;;;;;37.83;24.27;;;;;;;6.81;100.00;99300.19;5050431;28;20239;-83
2024/03/10 11:21:49;;;;;;;40.30;24.57;;;;;;;6.87;100.00;99305.91;5053813;28;20204;-84
2024/03/10 11:24:20;;;;;;;40.50;23.97;;;;;;;6.96;100.00;99293.84;5051693;28;20590;-83
2024/03/10 11:26:48;;;;;;;40.90;25.23;;;;;;;7.02;100.00;99281.97;5052878;28;20226;-83
2024/03/10 11:29:26;;;;;;;44.77;26.50;;;;;;;7.14;100.00;99270.53;5052279;28;20309;-82
2024/03/10 11:31:56;;;;;;;38.53;24.90;;;;;;;7.20;100.00;99259.47;5055392;28;20636;-83
2024/03/10 11:34:24;;;;;;;42.93;26.70;;;;;;;7.27;100.00;99255.44;5053571;28;20206;-83
2024/03/10 11:36:51;;;;;;;43.80;25.77;;;;;;;7.37;100.00;99245.00;5052918;28;20237;-82
2024/03/10 11:39:22;;;;;;;36.93;22.40;;;;;;;7.46;100.00;99252.31;5059517;28;20291;-83
2024/03/10 11:41:49;;;;;;;40.20;26.43;;;;;;;7.59;100.00;99255.75;5054160;28;20261;-83